sensor_id;sensor_type;location;lat;lon;timestamp;P1;durP1;ratioP1;P2;durP2;ratioP2
55362;SDS011;41244;49.242;9.060;2023-01-15T00:00:19;0.85;;;0.85;;
55362;SDS011;41244;49.242;9.060;2023-01-15T00:02:45;1.23;;;1.10;;
55362;SDS011;41244;49.242;9.060;2023-01-15T00:05:11;1.35;;;1.25;;
55362;SDS011;41244;49.242;9.060;2023-01-15T00:07:37;0.82;;;0.82;;
55362;SDS011;41244;49.242;9.060;2023-01-15T00:10:03;1.05;;;1.02;;
55362;SDS011;41244;49.242;9.060;2023-01-15T00:12:29;1.13;;;1.13;;
55362;SDS011;41244;49.242;9.060;2023-01-15T00:14:55;0.93;;;0.93;;
55362;SDS011;41244;49.242;9.060;2023-01-15T00:17:22;0.90;;;0.90;;
55362;SDS011;41244;49.242;9.060;2023-01-15T00:19:47;1.30;;;1.15;;
55362;SDS011;41244;49.242;9.060;2023-01-15T00:22:13;0.68;;;0.68;;
55362;SDS011;41244;49.242;9.060;2023-01-15T00:24:39;1.10;;;1.10;;
55362;SDS011;41244;49.242;9.060;2023-01-15T00:27:23;0.77;;;0.77;;
55362;SDS011;41244;49.242;9.060;2023-01-15T00:30:05;4.22;;;2.40;;
55362;SDS011;41244;49.242;9.060;2023-01-15T00:32:34;3.20;;;2.85;;
55362;SDS011;41244;49.242;9.060;2023-01-15T00:35:00;1.60;;;1.50;;
55362;SDS011;41244;49.242;9.060;2023-01-15T00:37:26;1.00;;;1.00;;
55362;SDS011;41244;49.242;9.060;2023-01-15T00:39:52;0.82;;;0.82;;
55362;SDS011;41244;49.242;9.060;2023-01-15T00:42:17;1.20;;;1.20;;
55362;SDS011;41244;49.242;9.060;2023-01-15T00:44:43;1.10;;;1.10;;
55362;SDS011;41244;49.242;9.060;2023-01-15T00:47:10;0.82;;;0.82;;
55362;SDS011;41244;49.242;9.060;2023-01-15T00:49:39;0.82;;;0.82;;
55362;SDS011;41244;49.242;9.060;2023-01-15T00:52:06;1.58;;;1.38;;
55362;SDS011;41244;49.242;9.060;2023-01-15T00:54:31;1.10;;;1.10;;
55362;SDS011;41244;49.242;9.060;2023-01-15T00:56:57;0.80;;;0.80;;
55362;SDS011;41244;49.242;9.060;2023-01-15T00:59:23;2.15;;;1.25;;
55362;SDS011;41244;49.242;9.060;2023-01-15T01:01:49;1.00;;;1.00;;
55362;SDS011;41244;49.242;9.060;2023-01-15T01:04:15;1.20;;;1.13;;
55362;SDS011;41244;49.242;9.060;2023-01-15T01:06:41;1.17;;;1.05;;
55362;SDS011;41244;49.242;9.060;2023-01-15T01:09:07;1.23;;;1.02;;
55362;SDS011;41244;49.242;9.060;2023-01-15T01:11:38;1.30;;;1.08;;
55362;SDS011;41244;49.242;9.060;2023-01-15T01:14:04;1.08;;;1.08;;
55362;SDS011;41244;49.242;9.060;2023-01-15T01:16:34;0.80;;;0.80;;
55362;SDS011;41244;49.242;9.060;2023-01-15T01:19:07;2.63;;;1.40;;
55362;SDS011;41244;49.242;9.060;2023-01-15T01:21:36;0.70;;;0.70;;
55362;SDS011;41244;49.242;9.060;2023-01-15T01:24:03;0.68;;;0.68;;
55362;SDS011;41244;49.242;9.060;2023-01-15T01:26:30;0.80;;;0.80;;
55362;SDS011;41244;49.242;9.060;2023-01-15T01:28:56;1.58;;;1.25;;
55362;SDS011;41244;49.242;9.060;2023-01-15T01:31:22;0.95;;;0.93;;
55362;SDS011;41244;49.242;9.060;2023-01-15T01:33:52;1.10;;;1.00;;
55362;SDS011;41244;49.242;9.060;2023-01-15T01:36:21;0.70;;;0.70;;
55362;SDS011;41244;49.242;9.060;2023-01-15T01:38:53;0.70;;;0.70;;
55362;SDS011;41244;49.242;9.060;2023-01-15T01:41:18;0.57;;;0.57;;
55362;SDS011;41244;49.242;9.060;2023-01-15T01:46:21;0.90;;;0.90;;
55362;SDS011;41244;49.242;9.060;2023-01-15T01:48:49;0.85;;;0.85;;
55362;SDS011;41244;49.242;9.060;2023-01-15T01:51:19;0.80;;;0.80;;
55362;SDS011;41244;49.242;9.060;2023-01-15T01:53:49;0.88;;;0.88;;
55362;SDS011;41244;49.242;9.060;2023-01-15T01:56:15;0.55;;;0.55;;
55362;SDS011;41244;49.242;9.060;2023-01-15T01:58:44;1.00;;;1.00;;
55362;SDS011;41244;49.242;9.060;2023-01-15T02:01:14;0.98;;;0.98;;
55362;SDS011;41244;49.242;9.060;2023-01-15T02:03:41;1.17;;;1.08;;
55362;SDS011;41244;49.242;9.060;2023-01-15T02:06:07;1.80;;;0.93;;
55362;SDS011;41244;49.242;9.060;2023-01-15T02:08:34;0.90;;;0.90;;
55362;SDS011;41244;49.242;9.060;2023-01-15T02:11:03;1.50;;;0.57;;
55362;SDS011;41244;49.242;9.060;2023-01-15T02:13:37;1.20;;;1.10;;
55362;SDS011;41244;49.242;9.060;2023-01-15T02:16:30;0.70;;;0.70;;
55362;SDS011;41244;49.242;9.060;2023-01-15T02:19:29;0.93;;;0.93;;
55362;SDS011;41244;49.242;9.060;2023-01-15T02:22:23;0.73;;;0.73;;
55362;SDS011;41244;49.242;9.060;2023-01-15T02:25:33;0.70;;;0.70;;
55362;SDS011;41244;49.242;9.060;2023-01-15T02:28:29;1.17;;;1.08;;
55362;SDS011;41244;49.242;9.060;2023-01-15T02:31:04;1.00;;;1.00;;
55362;SDS011;41244;49.242;9.060;2023-01-15T02:34:02;1.38;;;0.95;;
55362;SDS011;41244;49.242;9.060;2023-01-15T02:36:44;0.73;;;0.73;;
55362;SDS011;41244;49.242;9.060;2023-01-15T02:39:14;0.95;;;0.95;;
55362;SDS011;41244;49.242;9.060;2023-01-15T02:41:43;0.80;;;0.80;;
55362;SDS011;41244;49.242;9.060;2023-01-15T02:44:13;0.70;;;0.70;;
55362;SDS011;41244;49.242;9.060;2023-01-15T02:46:42;1.00;;;0.80;;
55362;SDS011;41244;49.242;9.060;2023-01-15T02:49:09;0.70;;;0.70;;
55362;SDS011;41244;49.242;9.060;2023-01-15T02:51:47;0.70;;;0.70;;
55362;SDS011;41244;49.242;9.060;2023-01-15T02:54:30;0.73;;;0.73;;
55362;SDS011;41244;49.242;9.060;2023-01-15T02:57:11;0.95;;;0.80;;
55362;SDS011;41244;49.242;9.060;2023-01-15T02:59:40;0.70;;;0.70;;
55362;SDS011;41244;49.242;9.060;2023-01-15T03:02:10;0.68;;;0.68;;
55362;SDS011;41244;49.242;9.060;2023-01-15T03:04:50;0.68;;;0.68;;
55362;SDS011;41244;49.242;9.060;2023-01-15T03:07:58;0.85;;;0.85;;
55362;SDS011;41244;49.242;9.060;2023-01-15T03:10:46;0.75;;;0.75;;
55362;SDS011;41244;49.242;9.060;2023-01-15T03:16:34;0.50;;;0.45;;
55362;SDS011;41244;49.242;9.060;2023-01-15T03:22:20;1.10;;;1.10;;
55362;SDS011;41244;49.242;9.060;2023-01-15T03:25:02;0.70;;;0.70;;
55362;SDS011;41244;49.242;9.060;2023-01-15T03:27:45;0.85;;;0.82;;
55362;SDS011;41244;49.242;9.060;2023-01-15T03:30:12;0.60;;;0.60;;
55362;SDS011;41244;49.242;9.060;2023-01-15T03:32:42;0.68;;;0.68;;
55362;SDS011;41244;49.242;9.060;2023-01-15T03:35:38;0.60;;;0.60;;
55362;SDS011;41244;49.242;9.060;2023-01-15T03:38:11;1.95;;;1.85;;
55362;SDS011;41244;49.242;9.060;2023-01-15T03:40:41;0.75;;;0.75;;
55362;SDS011;41244;49.242;9.060;2023-01-15T03:46:25;0.55;;;0.55;;
55362;SDS011;41244;49.242;9.060;2023-01-15T04:00:20;0.80;;;0.80;;
55362;SDS011;41244;49.242;9.060;2023-01-15T04:02:52;1.00;;;1.00;;
55362;SDS011;41244;49.242;9.060;2023-01-15T04:05:19;2.40;;;1.17;;
55362;SDS011;41244;49.242;9.060;2023-01-15T04:07:46;0.88;;;0.88;;
55362;SDS011;41244;49.242;9.060;2023-01-15T04:10:13;1.35;;;0.95;;
55362;SDS011;41244;49.242;9.060;2023-01-15T04:12:39;1.58;;;0.85;;
55362;SDS011;41244;49.242;9.060;2023-01-15T04:15:05;0.90;;;0.90;;
55362;SDS011;41244;49.242;9.060;2023-01-15T04:17:32;1.10;;;1.10;;
55362;SDS011;41244;49.242;9.060;2023-01-15T04:19:57;3.20;;;2.05;;
55362;SDS011;41244;49.242;9.060;2023-01-15T04:22:23;1.73;;;1.63;;
55362;SDS011;41244;49.242;9.060;2023-01-15T04:24:49;1.50;;;1.40;;
55362;SDS011;41244;49.242;9.060;2023-01-15T04:27:15;0.90;;;0.80;;
55362;SDS011;41244;49.242;9.060;2023-01-15T04:29:40;0.70;;;0.70;;
55362;SDS011;41244;49.242;9.060;2023-01-15T04:32:06;1.13;;;0.90;;
55362;SDS011;41244;49.242;9.060;2023-01-15T04:34:32;0.85;;;0.85;;
55362;SDS011;41244;49.242;9.060;2023-01-15T04:36:59;1.40;;;1.40;;
55362;SDS011;41244;49.242;9.060;2023-01-15T04:39:25;0.90;;;0.90;;
55362;SDS011;41244;49.242;9.060;2023-01-15T04:41:51;0.75;;;0.75;;
55362;SDS011;41244;49.242;9.060;2023-01-15T04:47:01;0.90;;;0.90;;
55362;SDS011;41244;49.242;9.060;2023-01-15T04:49:27;0.70;;;0.70;;
55362;SDS011;41244;49.242;9.060;2023-01-15T04:51:54;0.82;;;0.82;;
55362;SDS011;41244;49.242;9.060;2023-01-15T04:54:20;0.77;;;0.75;;
55362;SDS011;41244;49.242;9.060;2023-01-15T04:56:47;0.80;;;0.80;;
55362;SDS011;41244;49.242;9.060;2023-01-15T04:59:16;0.80;;;0.80;;
55362;SDS011;41244;49.242;9.060;2023-01-15T05:01:45;0.70;;;0.70;;
55362;SDS011;41244;49.242;9.060;2023-01-15T05:04:11;0.75;;;0.75;;
55362;SDS011;41244;49.242;9.060;2023-01-15T05:06:37;0.73;;;0.73;;
55362;SDS011;41244;49.242;9.060;2023-01-15T05:09:03;1.25;;;0.77;;
55362;SDS011;41244;49.242;9.060;2023-01-15T05:11:29;1.10;;;1.10;;
55362;SDS011;41244;49.242;9.060;2023-01-15T05:13:55;0.68;;;0.68;;
55362;SDS011;41244;49.242;9.060;2023-01-15T05:16:25;1.33;;;1.33;;
55362;SDS011;41244;49.242;9.060;2023-01-15T05:18:55;1.45;;;1.35;;
55362;SDS011;41244;49.242;9.060;2023-01-15T05:21:25;1.48;;;1.20;;
55362;SDS011;41244;49.242;9.060;2023-01-15T05:23:54;1.23;;;1.13;;
55362;SDS011;41244;49.242;9.060;2023-01-15T05:26:21;0.90;;;0.90;;
55362;SDS011;41244;49.242;9.060;2023-01-15T05:31:24;1.10;;;1.10;;
55362;SDS011;41244;49.242;9.060;2023-01-15T05:33:51;1.50;;;1.50;;
55362;SDS011;41244;49.242;9.060;2023-01-15T05:36:19;1.58;;;1.48;;
55362;SDS011;41244;49.242;9.060;2023-01-15T05:38:53;1.42;;;1.35;;
55362;SDS011;41244;49.242;9.060;2023-01-15T05:41:23;1.48;;;1.38;;
55362;SDS011;41244;49.242;9.060;2023-01-15T05:44:09;1.20;;;1.20;;
55362;SDS011;41244;49.242;9.060;2023-01-15T05:46:36;2.15;;;1.95;;
55362;SDS011;41244;49.242;9.060;2023-01-15T05:49:05;1.55;;;1.45;;
55362;SDS011;41244;49.242;9.060;2023-01-15T05:51:43;1.92;;;1.20;;
55362;SDS011;41244;49.242;9.060;2023-01-15T05:54:11;1.15;;;1.15;;
55362;SDS011;41244;49.242;9.060;2023-01-15T05:56:46;1.17;;;1.17;;
55362;SDS011;41244;49.242;9.060;2023-01-15T05:59:13;2.45;;;2.03;;
55362;SDS011;41244;49.242;9.060;2023-01-15T06:01:40;2.55;;;2.30;;
55362;SDS011;41244;49.242;9.060;2023-01-15T06:04:06;2.60;;;2.40;;
55362;SDS011;41244;49.242;9.060;2023-01-15T06:06:32;2.33;;;2.10;;
55362;SDS011;41244;49.242;9.060;2023-01-15T06:08:59;2.30;;;2.10;;
55362;SDS011;41244;49.242;9.060;2023-01-15T06:11:25;2.80;;;2.40;;
55362;SDS011;41244;49.242;9.060;2023-01-15T06:13:51;3.30;;;2.50;;
55362;SDS011;41244;49.242;9.060;2023-01-15T06:16:17;2.97;;;2.70;;
55362;SDS011;41244;49.242;9.060;2023-01-15T06:18:43;2.78;;;2.45;;
55362;SDS011;41244;49.242;9.060;2023-01-15T06:21:09;2.65;;;2.45;;
55362;SDS011;41244;49.242;9.060;2023-01-15T06:23:37;2.42;;;2.22;;
55362;SDS011;41244;49.242;9.060;2023-01-15T06:26:04;2.50;;;2.30;;
55362;SDS011;41244;49.242;9.060;2023-01-15T06:28:33;2.50;;;2.30;;
55362;SDS011;41244;49.242;9.060;2023-01-15T06:30:59;2.45;;;2.25;;
55362;SDS011;41244;49.242;9.060;2023-01-15T06:33:33;2.40;;;2.20;;
55362;SDS011;41244;49.242;9.060;2023-01-15T06:36:03;2.40;;;2.20;;
55362;SDS011;41244;49.242;9.060;2023-01-15T06:38:32;2.70;;;2.50;;
55362;SDS011;41244;49.242;9.060;2023-01-15T06:40:59;3.17;;;2.78;;
55362;SDS011;41244;49.242;9.060;2023-01-15T06:43:26;3.63;;;3.30;;
55362;SDS011;41244;49.242;9.060;2023-01-15T06:46:11;3.47;;;3.17;;
55362;SDS011;41244;49.242;9.060;2023-01-15T06:48:56;2.97;;;2.65;;
55362;SDS011;41244;49.242;9.060;2023-01-15T06:51:22;3.20;;;2.90;;
55362;SDS011;41244;49.242;9.060;2023-01-15T06:53:48;2.28;;;2.08;;
55362;SDS011;41244;49.242;9.060;2023-01-15T06:56:14;2.50;;;2.00;;
55362;SDS011;41244;49.242;9.060;2023-01-15T06:58:41;4.60;;;4.20;;
55362;SDS011;41244;49.242;9.060;2023-01-15T07:01:08;2.55;;;2.30;;
55362;SDS011;41244;49.242;9.060;2023-01-15T07:03:36;4.00;;;2.00;;
55362;SDS011;41244;49.242;9.060;2023-01-15T07:06:05;1.88;;;1.60;;
55362;SDS011;41244;49.242;9.060;2023-01-15T07:08:33;2.45;;;2.25;;
55362;SDS011;41244;49.242;9.060;2023-01-15T07:11:03;4.05;;;3.75;;
55362;SDS011;41244;49.242;9.060;2023-01-15T07:13:31;1.88;;;1.75;;
55362;SDS011;41244;49.242;9.060;2023-01-15T07:15:58;1.10;;;1.10;;
55362;SDS011;41244;49.242;9.060;2023-01-15T07:18:26;1.75;;;1.20;;
55362;SDS011;41244;49.242;9.060;2023-01-15T07:20:56;1.80;;;1.45;;
55362;SDS011;41244;49.242;9.060;2023-01-15T07:23:23;1.88;;;1.77;;
55362;SDS011;41244;49.242;9.060;2023-01-15T07:25:53;2.95;;;1.90;;
55362;SDS011;41244;49.242;9.060;2023-01-15T07:28:19;1.85;;;1.75;;
55362;SDS011;41244;49.242;9.060;2023-01-15T07:30:48;2.53;;;2.33;;
55362;SDS011;41244;49.242;9.060;2023-01-15T07:33:14;1.70;;;1.60;;
55362;SDS011;41244;49.242;9.060;2023-01-15T07:35:40;1.40;;;1.40;;
55362;SDS011;41244;49.242;9.060;2023-01-15T07:38:06;1.65;;;1.55;;
55362;SDS011;41244;49.242;9.060;2023-01-15T07:40:32;1.85;;;1.75;;
55362;SDS011;41244;49.242;9.060;2023-01-15T07:42:57;1.52;;;1.42;;
55362;SDS011;41244;49.242;9.060;2023-01-15T07:45:41;1.60;;;1.50;;
55362;SDS011;41244;49.242;9.060;2023-01-15T07:48:26;0.80;;;0.80;;
55362;SDS011;41244;49.242;9.060;2023-01-15T07:53:36;1.85;;;1.75;;
55362;SDS011;41244;49.242;9.060;2023-01-15T07:56:02;2.00;;;1.85;;
55362;SDS011;41244;49.242;9.060;2023-01-15T07:58:28;1.70;;;1.60;;
55362;SDS011;41244;49.242;9.060;2023-01-15T08:00:53;1.42;;;1.33;;
55362;SDS011;41244;49.242;9.060;2023-01-15T08:03:19;1.40;;;1.17;;
55362;SDS011;41244;49.242;9.060;2023-01-15T08:05:45;1.58;;;1.48;;
55362;SDS011;41244;49.242;9.060;2023-01-15T08:08:14;1.15;;;1.15;;
55362;SDS011;41244;49.242;9.060;2023-01-15T08:10:41;1.17;;;1.17;;
55362;SDS011;41244;49.242;9.060;2023-01-15T08:13:25;1.20;;;1.10;;
55362;SDS011;41244;49.242;9.060;2023-01-15T08:16:09;1.45;;;1.35;;
55362;SDS011;41244;49.242;9.060;2023-01-15T08:18:36;1.40;;;1.40;;
55362;SDS011;41244;49.242;9.060;2023-01-15T08:21:02;1.10;;;1.05;;
55362;SDS011;41244;49.242;9.060;2023-01-15T08:23:28;1.27;;;1.23;;
55362;SDS011;41244;49.242;9.060;2023-01-15T08:25:54;1.67;;;1.58;;
55362;SDS011;41244;49.242;9.060;2023-01-15T08:28:23;2.40;;;2.00;;
55362;SDS011;41244;49.242;9.060;2023-01-15T08:30:49;1.45;;;1.45;;
55362;SDS011;41244;49.242;9.060;2023-01-15T08:33:15;1.80;;;1.70;;
55362;SDS011;41244;49.242;9.060;2023-01-15T08:35:41;1.80;;;1.70;;
55362;SDS011;41244;49.242;9.060;2023-01-15T08:38:07;1.73;;;1.63;;
55362;SDS011;41244;49.242;9.060;2023-01-15T08:40:33;2.30;;;2.10;;
55362;SDS011;41244;49.242;9.060;2023-01-15T08:43:20;3.30;;;3.00;;
55362;SDS011;41244;49.242;9.060;2023-01-15T08:45:46;2.60;;;2.40;;
55362;SDS011;41244;49.242;9.060;2023-01-15T08:48:12;1.85;;;1.75;;
55362;SDS011;41244;49.242;9.060;2023-01-15T08:50:37;1.85;;;1.75;;
55362;SDS011;41244;49.242;9.060;2023-01-15T08:53:03;2.10;;;2.00;;
55362;SDS011;41244;49.242;9.060;2023-01-15T08:55:29;1.42;;;1.33;;
55362;SDS011;41244;49.242;9.060;2023-01-15T08:57:54;2.10;;;1.90;;
55362;SDS011;41244;49.242;9.060;2023-01-15T09:00:20;1.90;;;1.80;;
55362;SDS011;41244;49.242;9.060;2023-01-15T09:02:48;1.40;;;1.40;;
55362;SDS011;41244;49.242;9.060;2023-01-15T09:05:14;1.90;;;1.80;;
55362;SDS011;41244;49.242;9.060;2023-01-15T09:07:39;1.63;;;1.52;;
55362;SDS011;41244;49.242;9.060;2023-01-15T09:10:05;1.80;;;1.70;;
55362;SDS011;41244;49.242;9.060;2023-01-15T09:12:32;1.60;;;1.50;;
55362;SDS011;41244;49.242;9.060;2023-01-15T09:14:57;2.00;;;1.90;;
55362;SDS011;41244;49.242;9.060;2023-01-15T09:17:25;2.50;;;2.30;;
55362;SDS011;41244;49.242;9.060;2023-01-15T09:19:51;1.73;;;1.63;;
55362;SDS011;41244;49.242;9.060;2023-01-15T09:22:17;1.23;;;1.23;;
55362;SDS011;41244;49.242;9.060;2023-01-15T09:24:43;1.67;;;1.60;;
55362;SDS011;41244;49.242;9.060;2023-01-15T09:27:10;1.65;;;1.55;;
55362;SDS011;41244;49.242;9.060;2023-01-15T09:29:36;1.63;;;1.52;;
55362;SDS011;41244;49.242;9.060;2023-01-15T09:32:02;2.20;;;2.00;;
55362;SDS011;41244;49.242;9.060;2023-01-15T09:34:27;1.65;;;1.55;;
55362;SDS011;41244;49.242;9.060;2023-01-15T09:36:53;1.90;;;1.40;;
55362;SDS011;41244;49.242;9.060;2023-01-15T09:39:19;1.10;;;1.10;;
55362;SDS011;41244;49.242;9.060;2023-01-15T09:44:39;1.58;;;1.48;;
55362;SDS011;41244;49.242;9.060;2023-01-15T09:47:25;4.75;;;3.10;;
55362;SDS011;41244;49.242;9.060;2023-01-15T09:49:59;7.18;;;3.63;;
55362;SDS011;41244;49.242;9.060;2023-01-15T09:53:03;4.53;;;3.08;;
55362;SDS011;41244;49.242;9.060;2023-01-15T09:55:49;4.55;;;3.40;;
55362;SDS011;41244;49.242;9.060;2023-01-15T09:58:19;3.65;;;3.03;;
55362;SDS011;41244;49.242;9.060;2023-01-15T10:00:49;1.40;;;1.30;;
55362;SDS011;41244;49.242;9.060;2023-01-15T10:06:09;1.83;;;1.70;;
55362;SDS011;41244;49.242;9.060;2023-01-15T10:11:42;2.47;;;2.28;;
55362;SDS011;41244;49.242;9.060;2023-01-15T10:14:42;1.60;;;1.50;;
55362;SDS011;41244;49.242;9.060;2023-01-15T10:17:56;5.53;;;2.97;;
55362;SDS011;41244;49.242;9.060;2023-01-15T10:26:29;3.85;;;2.78;;
55362;SDS011;41244;49.242;9.060;2023-01-15T10:28:57;4.35;;;2.65;;
55362;SDS011;41244;49.242;9.060;2023-01-15T10:31:44;2.60;;;1.50;;
55362;SDS011;41244;49.242;9.060;2023-01-15T10:37:21;2.17;;;1.98;;
55362;SDS011;41244;49.242;9.060;2023-01-15T10:40:17;2.95;;;2.20;;
55362;SDS011;41244;49.242;9.060;2023-01-15T10:43:22;2.72;;;2.17;;
55362;SDS011;41244;49.242;9.060;2023-01-15T10:46:23;2.13;;;1.77;;
55362;SDS011;41244;49.242;9.060;2023-01-15T10:51:25;1.88;;;1.75;;
55362;SDS011;41244;49.242;9.060;2023-01-15T10:54:16;2.50;;;2.30;;
55362;SDS011;41244;49.242;9.060;2023-01-15T10:57:17;3.40;;;1.90;;
55362;SDS011;41244;49.242;9.060;2023-01-15T11:00:00;5.45;;;4.10;;
55362;SDS011;41244;49.242;9.060;2023-01-15T11:02:28;2.35;;;2.17;;
55362;SDS011;41244;49.242;9.060;2023-01-15T11:05:04;2.55;;;2.33;;
55362;SDS011;41244;49.242;9.060;2023-01-15T11:07:38;2.70;;;1.95;;
55362;SDS011;41244;49.242;9.060;2023-01-15T11:10:10;2.53;;;2.10;;
55362;SDS011;41244;49.242;9.060;2023-01-15T11:12:39;2.22;;;2.05;;
55362;SDS011;41244;49.242;9.060;2023-01-15T11:15:35;2.42;;;1.77;;
55362;SDS011;41244;49.242;9.060;2023-01-15T11:18:27;4.35;;;1.95;;
55362;SDS011;41244;49.242;9.060;2023-01-15T11:21:16;4.25;;;2.88;;
55362;SDS011;41244;49.242;9.060;2023-01-15T11:23:44;2.60;;;2.40;;
55362;SDS011;41244;49.242;9.060;2023-01-15T11:26:18;3.10;;;2.53;;
55362;SDS011;41244;49.242;9.060;2023-01-15T11:28:51;2.10;;;2.00;;
55362;SDS011;41244;49.242;9.060;2023-01-15T11:31:18;2.58;;;2.30;;
55362;SDS011;41244;49.242;9.060;2023-01-15T11:34:06;3.45;;;2.42;;
55362;SDS011;41244;49.242;9.060;2023-01-15T11:36:38;2.20;;;2.00;;
55362;SDS011;41244;49.242;9.060;2023-01-15T11:39:04;4.25;;;2.00;;
55362;SDS011;41244;49.242;9.060;2023-01-15T11:41:44;2.35;;;1.80;;
55362;SDS011;41244;49.242;9.060;2023-01-15T11:44:31;1.60;;;1.50;;
55362;SDS011;41244;49.242;9.060;2023-01-15T11:50:01;2.33;;;1.80;;
55362;SDS011;41244;49.242;9.060;2023-01-15T11:55:17;3.33;;;2.70;;
55362;SDS011;41244;49.242;9.060;2023-01-15T11:57:45;2.03;;;1.90;;
55362;SDS011;41244;49.242;9.060;2023-01-15T12:02:45;5.60;;;2.40;;
55362;SDS011;41244;49.242;9.060;2023-01-15T12:07:49;3.00;;;2.00;;
55362;SDS011;41244;49.242;9.060;2023-01-15T12:13:43;3.95;;;2.83;;
55362;SDS011;41244;49.242;9.060;2023-01-15T12:17:09;2.05;;;1.95;;
55362;SDS011;41244;49.242;9.060;2023-01-15T12:28:21;3.03;;;2.30;;
55362;SDS011;41244;49.242;9.060;2023-01-15T12:33:44;5.15;;;2.20;;
55362;SDS011;41244;49.242;9.060;2023-01-15T12:36:28;5.38;;;2.45;;
55362;SDS011;41244;49.242;9.060;2023-01-15T12:39:03;2.38;;;1.92;;
55362;SDS011;41244;49.242;9.060;2023-01-15T12:41:53;6.00;;;2.00;;
55362;SDS011;41244;49.242;9.060;2023-01-15T12:44:51;6.93;;;2.80;;
55362;SDS011;41244;49.242;9.060;2023-01-15T12:47:41;2.17;;;1.60;;
55362;SDS011;41244;49.242;9.060;2023-01-15T12:53:36;3.85;;;1.90;;
55362;SDS011;41244;49.242;9.060;2023-01-15T13:04:11;9.65;;;2.10;;
55362;SDS011;41244;49.242;9.060;2023-01-15T13:07:10;4.28;;;2.00;;
55362;SDS011;41244;49.242;9.060;2023-01-15T13:12:31;4.22;;;2.47;;
55362;SDS011;41244;49.242;9.060;2023-01-15T13:14:57;3.50;;;2.63;;
55362;SDS011;41244;49.242;9.060;2023-01-15T13:17:31;4.50;;;2.80;;
55362;SDS011;41244;49.242;9.060;2023-01-15T13:23:20;7.32;;;3.30;;
55362;SDS011;41244;49.242;9.060;2023-01-15T13:42:44;9.60;;;3.97;;
55362;SDS011;41244;49.242;9.060;2023-01-15T13:47:43;6.10;;;3.00;;
55362;SDS011;41244;49.242;9.060;2023-01-15T13:50:18;5.00;;;2.80;;
55362;SDS011;41244;49.242;9.060;2023-01-15T13:53:00;3.80;;;2.60;;
55362;SDS011;41244;49.242;9.060;2023-01-15T13:55:36;5.20;;;3.33;;
55362;SDS011;41244;49.242;9.060;2023-01-15T13:58:21;7.70;;;2.58;;
55362;SDS011;41244;49.242;9.060;2023-01-15T14:04:12;4.32;;;2.40;;
55362;SDS011;41244;49.242;9.060;2023-01-15T14:14:29;6.32;;;2.45;;
55362;SDS011;41244;49.242;9.060;2023-01-15T14:29:28;5.20;;;2.88;;
55362;SDS011;41244;49.242;9.060;2023-01-15T14:35:09;4.70;;;2.53;;
55362;SDS011;41244;49.242;9.060;2023-01-15T14:40:32;5.88;;;2.92;;
55362;SDS011;41244;49.242;9.060;2023-01-15T14:43:00;2.90;;;2.47;;
55362;SDS011;41244;49.242;9.060;2023-01-15T14:50:52;8.52;;;4.18;;
55362;SDS011;41244;49.242;9.060;2023-01-15T14:56:12;3.58;;;1.80;;
55362;SDS011;41244;49.242;9.060;2023-01-15T15:01:44;4.60;;;2.30;;
55362;SDS011;41244;49.242;9.060;2023-01-15T15:07:20;5.25;;;2.35;;
55362;SDS011;41244;49.242;9.060;2023-01-15T15:09:56;5.13;;;2.10;;
55362;SDS011;41244;49.242;9.060;2023-01-15T15:16:16;2.58;;;2.05;;
55362;SDS011;41244;49.242;9.060;2023-01-15T15:21:45;2.47;;;2.00;;
55362;SDS011;41244;49.242;9.060;2023-01-15T15:26:50;5.93;;;2.72;;
55362;SDS011;41244;49.242;9.060;2023-01-15T15:29:17;4.82;;;2.42;;
55362;SDS011;41244;49.242;9.060;2023-01-15T15:31:46;3.92;;;2.20;;
55362;SDS011;41244;49.242;9.060;2023-01-15T15:34:26;5.85;;;2.10;;
55362;SDS011;41244;49.242;9.060;2023-01-15T15:37:02;2.80;;;1.75;;
55362;SDS011;41244;49.242;9.060;2023-01-15T15:39:49;4.97;;;2.40;;
55362;SDS011;41244;49.242;9.060;2023-01-15T15:42:36;4.95;;;2.70;;
55362;SDS011;41244;49.242;9.060;2023-01-15T15:45:54;5.82;;;3.70;;
55362;SDS011;41244;49.242;9.060;2023-01-15T15:48:40;6.50;;;3.85;;
55362;SDS011;41244;49.242;9.060;2023-01-15T15:56:52;7.15;;;2.33;;
55362;SDS011;41244;49.242;9.060;2023-01-15T15:59:38;5.20;;;2.10;;
55362;SDS011;41244;49.242;9.060;2023-01-15T16:04:59;5.50;;;2.53;;
55362;SDS011;41244;49.242;9.060;2023-01-15T16:07:29;3.90;;;2.35;;
55362;SDS011;41244;49.242;9.060;2023-01-15T16:10:02;10.23;;;5.20;;
55362;SDS011;41244;49.242;9.060;2023-01-15T16:12:38;6.50;;;4.60;;
55362;SDS011;41244;49.242;9.060;2023-01-15T16:15:18;5.63;;;2.90;;
55362;SDS011;41244;49.242;9.060;2023-01-15T16:17:52;3.95;;;2.40;;
55362;SDS011;41244;49.242;9.060;2023-01-15T16:20:18;8.32;;;4.07;;
55362;SDS011;41244;49.242;9.060;2023-01-15T16:22:55;4.18;;;2.50;;
55362;SDS011;41244;49.242;9.060;2023-01-15T16:25:38;5.18;;;3.30;;
55362;SDS011;41244;49.242;9.060;2023-01-15T16:28:05;9.00;;;4.53;;
55362;SDS011;41244;49.242;9.060;2023-01-15T16:30:42;3.70;;;2.70;;
55362;SDS011;41244;49.242;9.060;2023-01-15T16:33:07;5.00;;;3.72;;
55362;SDS011;41244;49.242;9.060;2023-01-15T16:35:33;9.15;;;5.30;;
55362;SDS011;41244;49.242;9.060;2023-01-15T16:38:01;5.57;;;3.00;;
55362;SDS011;41244;49.242;9.060;2023-01-15T16:40:29;4.75;;;2.97;;
55362;SDS011;41244;49.242;9.060;2023-01-15T16:46:02;5.18;;;2.60;;
55362;SDS011;41244;49.242;9.060;2023-01-15T16:48:42;7.35;;;4.30;;
55362;SDS011;41244;49.242;9.060;2023-01-15T16:53:56;9.43;;;6.67;;
55362;SDS011;41244;49.242;9.060;2023-01-15T16:58:59;20.92;;;13.40;;
55362;SDS011;41244;49.242;9.060;2023-01-15T17:01:33;53.95;;;33.35;;
55362;SDS011;41244;49.242;9.060;2023-01-15T17:04:41;13.60;;;7.03;;
55362;SDS011;41244;49.242;9.060;2023-01-15T17:07:02;15.23;;;8.25;;
55362;SDS011;41244;49.242;9.060;2023-01-15T17:09:42;8.10;;;4.53;;
55362;SDS011;41244;49.242;9.060;2023-01-15T17:14:54;22.92;;;10.55;;
55362;SDS011;41244;49.242;9.060;2023-01-15T17:17:47;27.23;;;13.88;;
55362;SDS011;41244;49.242;9.060;2023-01-15T17:20:17;8.45;;;5.18;;
55362;SDS011;41244;49.242;9.060;2023-01-15T17:22:47;8.88;;;5.85;;
55362;SDS011;41244;49.242;9.060;2023-01-15T17:25:22;12.07;;;9.82;;
55362;SDS011;41244;49.242;9.060;2023-01-15T17:27:55;9.32;;;5.72;;
55362;SDS011;41244;49.242;9.060;2023-01-15T17:30:23;17.77;;;13.50;;
55362;SDS011;41244;49.242;9.060;2023-01-15T17:32:55;19.52;;;13.63;;
55362;SDS011;41244;49.242;9.060;2023-01-15T17:35:26;6.03;;;4.20;;
55362;SDS011;41244;49.242;9.060;2023-01-15T17:37:56;22.63;;;15.48;;
55362;SDS011;41244;49.242;9.060;2023-01-15T17:40:22;34.25;;;21.85;;
55362;SDS011;41244;49.242;9.060;2023-01-15T17:42:48;32.95;;;22.10;;
55362;SDS011;41244;49.242;9.060;2023-01-15T17:45:19;34.92;;;24.30;;
55362;SDS011;41244;49.242;9.060;2023-01-15T17:47:49;20.23;;;11.30;;
55362;SDS011;41244;49.242;9.060;2023-01-15T17:50:15;13.32;;;8.52;;
55362;SDS011;41244;49.242;9.060;2023-01-15T17:52:42;55.28;;;34.70;;
55362;SDS011;41244;49.242;9.060;2023-01-15T17:55:10;49.45;;;28.67;;
55362;SDS011;41244;49.242;9.060;2023-01-15T17:57:56;23.70;;;15.48;;
55362;SDS011;41244;49.242;9.060;2023-01-15T18:00:41;17.88;;;11.18;;
55362;SDS011;41244;49.242;9.060;2023-01-15T18:03:25;46.33;;;26.08;;
55362;SDS011;41244;49.242;9.060;2023-01-15T18:08:37;19.52;;;10.48;;
55362;SDS011;41244;49.242;9.060;2023-01-15T18:11:05;13.90;;;6.20;;
55362;SDS011;41244;49.242;9.060;2023-01-15T18:13:30;14.45;;;8.57;;
55362;SDS011;41244;49.242;9.060;2023-01-15T18:15:56;66.13;;;34.50;;
55362;SDS011;41244;49.242;9.060;2023-01-15T18:18:22;24.02;;;12.93;;
55362;SDS011;41244;49.242;9.060;2023-01-15T18:20:48;13.30;;;7.20;;
55362;SDS011;41244;49.242;9.060;2023-01-15T18:23:13;8.95;;;5.50;;
55362;SDS011;41244;49.242;9.060;2023-01-15T18:25:39;9.15;;;4.18;;